sensor_id;sensor_type;location;lat;lon;timestamp;temperature;humidity
15115;DHT22;7658;51.456;7.622;2022-07-26T00:01:25;19.20;99.90
15115;DHT22;7658;51.456;7.622;2022-07-26T00:03:51;19.20;99.90
15115;DHT22;7658;51.456;7.622;2022-07-26T00:06:17;19.20;99.90
15115;DHT22;7658;51.456;7.622;2022-07-26T00:08:43;19.20;99.90
15115;DHT22;7658;51.456;7.622;2022-07-26T00:11:08;19.20;99.90
15115;DHT22;7658;51.456;7.622;2022-07-26T00:13:34;19.20;99.90
15115;DHT22;7658;51.456;7.622;2022-07-26T00:16:00;19.10;99.90
15115;DHT22;7658;51.456;7.622;2022-07-26T00:18:27;19.10;99.90
15115;DHT22;7658;51.456;7.622;2022-07-26T00:20:53;19.10;99.90
15115;DHT22;7658;51.456;7.622;2022-07-26T00:23:19;19.10;99.90
15115;DHT22;7658;51.456;7.622;2022-07-26T00:25:45;19.10;99.90
15115;DHT22;7658;51.456;7.622;2022-07-26T00:28:11;19.10;99.90
15115;DHT22;7658;51.456;7.622;2022-07-26T00:30:37;19.10;99.90
15115;DHT22;7658;51.456;7.622;2022-07-26T00:33:03;19.10;99.90
15115;DHT22;7658;51.456;7.622;2022-07-26T00:35:29;19.10;99.90
15115;DHT22;7658;51.456;7.622;2022-07-26T00:37:55;19.10;99.90
15115;DHT22;7658;51.456;7.622;2022-07-26T00:40:21;19.10;99.90
15115;DHT22;7658;51.456;7.622;2022-07-26T00:42:47;19.10;99.90
15115;DHT22;7658;51.456;7.622;2022-07-26T00:45:14;19.20;99.90
15115;DHT22;7658;51.456;7.622;2022-07-26T00:47:40;19.10;99.90
15115;DHT22;7658;51.456;7.622;2022-07-26T00:50:09;19.00;99.90
15115;DHT22;7658;51.456;7.622;2022-07-26T00:52:36;19.00;99.90
15115;DHT22;7658;51.456;7.622;2022-07-26T00:55:03;19.00;99.90
15115;DHT22;7658;51.456;7.622;2022-07-26T00:57:30;19.00;99.90
15115;DHT22;7658;51.456;7.622;2022-07-26T00:59:55;19.00;99.90
15115;DHT22;7658;51.456;7.622;2022-07-26T01:02:21;19.00;99.90
15115;DHT22;7658;51.456;7.622;2022-07-26T01:04:47;18.90;99.90
15115;DHT22;7658;51.456;7.622;2022-07-26T01:07:13;18.90;99.90
15115;DHT22;7658;51.456;7.622;2022-07-26T01:09:39;18.80;99.90
15115;DHT22;7658;51.456;7.622;2022-07-26T01:12:05;18.80;99.90
15115;DHT22;7658;51.456;7.622;2022-07-26T01:14:31;18.70;99.90
15115;DHT22;7658;51.456;7.622;2022-07-26T01:16:57;18.70;99.90
15115;DHT22;7658;51.456;7.622;2022-07-26T01:19:23;18.60;99.90
15115;DHT22;7658;51.456;7.622;2022-07-26T01:21:50;18.60;99.90
15115;DHT22;7658;51.456;7.622;2022-07-26T01:24:16;18.50;99.90
15115;DHT22;7658;51.456;7.622;2022-07-26T01:26:43;18.50;99.90
15115;DHT22;7658;51.456;7.622;2022-07-26T01:29:09;18.40;99.90
15115;DHT22;7658;51.456;7.622;2022-07-26T01:31:35;18.30;99.90
15115;DHT22;7658;51.456;7.622;2022-07-26T01:34:01;18.30;99.90
15115;DHT22;7658;51.456;7.622;2022-07-26T01:36:27;18.20;99.90
15115;DHT22;7658;51.456;7.622;2022-07-26T01:38:52;18.20;99.90
15115;DHT22;7658;51.456;7.622;2022-07-26T01:41:18;18.10;99.90
15115;DHT22;7658;51.456;7.622;2022-07-26T01:43:44;18.10;99.90
15115;DHT22;7658;51.456;7.622;2022-07-26T01:46:10;18.00;99.90
15115;DHT22;7658;51.456;7.622;2022-07-26T01:48:38;18.00;99.90
15115;DHT22;7658;51.456;7.622;2022-07-26T01:51:04;18.00;99.90
15115;DHT22;7658;51.456;7.622;2022-07-26T01:53:29;17.90;99.90
15115;DHT22;7658;51.456;7.622;2022-07-26T01:55:55;17.90;99.90
15115;DHT22;7658;51.456;7.622;2022-07-26T01:58:21;17.90;99.90
15115;DHT22;7658;51.456;7.622;2022-07-26T02:00:47;17.90;99.90
15115;DHT22;7658;51.456;7.622;2022-07-26T02:03:13;17.80;99.90
15115;DHT22;7658;51.456;7.622;2022-07-26T02:05:39;17.80;99.90
15115;DHT22;7658;51.456;7.622;2022-07-26T02:08:05;17.70;99.90
15115;DHT22;7658;51.456;7.622;2022-07-26T02:10:31;17.70;99.90
15115;DHT22;7658;51.456;7.622;2022-07-26T02:13:16;17.80;99.90
15115;DHT22;7658;51.456;7.622;2022-07-26T02:15:41;17.70;99.90
15115;DHT22;7658;51.456;7.622;2022-07-26T02:18:07;17.70;99.90
15115;DHT22;7658;51.456;7.622;2022-07-26T02:20:33;17.70;99.90
15115;DHT22;7658;51.456;7.622;2022-07-26T02:23:00;17.80;99.90
15115;DHT22;7658;51.456;7.622;2022-07-26T02:25:26;17.80;99.90
15115;DHT22;7658;51.456;7.622;2022-07-26T02:27:52;17.70;99.90
15115;DHT22;7658;51.456;7.622;2022-07-26T02:30:18;17.70;99.90
15115;DHT22;7658;51.456;7.622;2022-07-26T02:32:44;17.80;99.90
15115;DHT22;7658;51.456;7.622;2022-07-26T02:35:10;17.80;99.90
15115;DHT22;7658;51.456;7.622;2022-07-26T02:37:36;17.70;99.90
15115;DHT22;7658;51.456;7.622;2022-07-26T02:40:02;17.80;99.90
15115;DHT22;7658;51.456;7.622;2022-07-26T02:42:28;17.70;99.90
15115;DHT22;7658;51.456;7.622;2022-07-26T02:44:54;17.70;99.90
15115;DHT22;7658;51.456;7.622;2022-07-26T02:47:20;17.70;99.90
15115;DHT22;7658;51.456;7.622;2022-07-26T02:49:46;17.70;99.90
15115;DHT22;7658;51.456;7.622;2022-07-26T02:52:11;17.70;99.90
15115;DHT22;7658;51.456;7.622;2022-07-26T02:54:37;17.70;99.90
15115;DHT22;7658;51.456;7.622;2022-07-26T02:57:03;17.70;99.90
15115;DHT22;7658;51.456;7.622;2022-07-26T02:59:29;17.80;99.90
15115;DHT22;7658;51.456;7.622;2022-07-26T03:01:55;17.80;99.90
15115;DHT22;7658;51.456;7.622;2022-07-26T03:04:21;17.80;99.90
15115;DHT22;7658;51.456;7.622;2022-07-26T03:06:47;17.80;99.90
15115;DHT22;7658;51.456;7.622;2022-07-26T03:09:12;17.80;99.90
15115;DHT22;7658;51.456;7.622;2022-07-26T03:11:38;17.80;99.90
15115;DHT22;7658;51.456;7.622;2022-07-26T03:14:04;17.80;99.90
15115;DHT22;7658;51.456;7.622;2022-07-26T03:16:30;17.70;99.90
15115;DHT22;7658;51.456;7.622;2022-07-26T03:18:56;17.70;99.90
15115;DHT22;7658;51.456;7.622;2022-07-26T03:21:22;17.70;99.90
15115;DHT22;7658;51.456;7.622;2022-07-26T03:23:48;17.70;99.90
15115;DHT22;7658;51.456;7.622;2022-07-26T03:26:14;17.80;99.90
15115;DHT22;7658;51.456;7.622;2022-07-26T03:28:40;17.80;99.90
15115;DHT22;7658;51.456;7.622;2022-07-26T03:31:07;17.90;99.90
15115;DHT22;7658;51.456;7.622;2022-07-26T03:33:33;17.80;99.90
15115;DHT22;7658;51.456;7.622;2022-07-26T03:35:58;17.80;99.90
15115;DHT22;7658;51.456;7.622;2022-07-26T03:38:24;17.80;99.90
15115;DHT22;7658;51.456;7.622;2022-07-26T03:40:50;17.80;99.90
15115;DHT22;7658;51.456;7.622;2022-07-26T03:43:16;17.80;99.90
15115;DHT22;7658;51.456;7.622;2022-07-26T03:45:44;17.80;99.90
15115;DHT22;7658;51.456;7.622;2022-07-26T03:48:10;17.90;99.90
15115;DHT22;7658;51.456;7.622;2022-07-26T03:50:36;17.90;99.90
15115;DHT22;7658;51.456;7.622;2022-07-26T03:53:02;17.90;99.90
15115;DHT22;7658;51.456;7.622;2022-07-26T03:55:28;17.90;99.90
15115;DHT22;7658;51.456;7.622;2022-07-26T03:58:13;17.90;99.90
15115;DHT22;7658;51.456;7.622;2022-07-26T04:00:38;17.80;99.90
15115;DHT22;7658;51.456;7.622;2022-07-26T04:03:04;17.80;99.90
15115;DHT22;7658;51.456;7.622;2022-07-26T04:05:30;17.70;99.90
15115;DHT22;7658;51.456;7.622;2022-07-26T04:07:56;17.60;99.90
15115;DHT22;7658;51.456;7.622;2022-07-26T04:10:22;17.50;99.90
15115;DHT22;7658;51.456;7.622;2022-07-26T04:12:48;17.50;99.90
15115;DHT22;7658;51.456;7.622;2022-07-26T04:15:14;17.40;99.90
15115;DHT22;7658;51.456;7.622;2022-07-26T04:17:41;17.40;99.90
15115;DHT22;7658;51.456;7.622;2022-07-26T04:20:09;17.40;99.90
15115;DHT22;7658;51.456;7.622;2022-07-26T04:22:36;17.40;99.90
15115;DHT22;7658;51.456;7.622;2022-07-26T04:25:03;17.40;99.90
15115;DHT22;7658;51.456;7.622;2022-07-26T04:27:30;17.30;99.90
15115;DHT22;7658;51.456;7.622;2022-07-26T04:29:56;17.30;99.90
15115;DHT22;7658;51.456;7.622;2022-07-26T04:32:22;17.30;99.90
15115;DHT22;7658;51.456;7.622;2022-07-26T04:34:48;17.20;99.90
15115;DHT22;7658;51.456;7.622;2022-07-26T04:37:14;17.20;99.90
15115;DHT22;7658;51.456;7.622;2022-07-26T04:39:39;17.20;99.90
15115;DHT22;7658;51.456;7.622;2022-07-26T04:42:05;17.10;99.90
15115;DHT22;7658;51.456;7.622;2022-07-26T04:44:31;17.10;99.90
15115;DHT22;7658;51.456;7.622;2022-07-26T04:46:57;17.10;99.90
15115;DHT22;7658;51.456;7.622;2022-07-26T04:49:22;17.10;99.90
15115;DHT22;7658;51.456;7.622;2022-07-26T04:51:48;17.00;99.90
15115;DHT22;7658;51.456;7.622;2022-07-26T04:54:14;16.90;99.90
15115;DHT22;7658;51.456;7.622;2022-07-26T04:56:45;16.90;99.90
15115;DHT22;7658;51.456;7.622;2022-07-26T04:59:12;16.70;99.90
15115;DHT22;7658;51.456;7.622;2022-07-26T05:01:38;16.50;99.90
15115;DHT22;7658;51.456;7.622;2022-07-26T05:04:04;16.40;99.90
15115;DHT22;7658;51.456;7.622;2022-07-26T05:06:30;16.20;99.90
15115;DHT22;7658;51.456;7.622;2022-07-26T05:08:57;16.10;99.90
15115;DHT22;7658;51.456;7.622;2022-07-26T05:11:23;16.10;99.90
15115;DHT22;7658;51.456;7.622;2022-07-26T05:13:50;16.00;99.90
15115;DHT22;7658;51.456;7.622;2022-07-26T05:16:16;16.00;99.90
15115;DHT22;7658;51.456;7.622;2022-07-26T05:18:42;15.90;99.90
15115;DHT22;7658;51.456;7.622;2022-07-26T05:21:08;15.80;99.90
15115;DHT22;7658;51.456;7.622;2022-07-26T05:23:33;15.80;99.90
15115;DHT22;7658;51.456;7.622;2022-07-26T05:25:59;15.70;99.90
15115;DHT22;7658;51.456;7.622;2022-07-26T05:28:25;15.80;99.90
15115;DHT22;7658;51.456;7.622;2022-07-26T05:30:50;15.80;99.90
15115;DHT22;7658;51.456;7.622;2022-07-26T05:33:16;15.90;99.90
15115;DHT22;7658;51.456;7.622;2022-07-26T05:35:42;15.90;99.90
15115;DHT22;7658;51.456;7.622;2022-07-26T05:38:08;15.80;99.90
15115;DHT22;7658;51.456;7.622;2022-07-26T05:40:34;16.00;99.90
15115;DHT22;7658;51.456;7.622;2022-07-26T05:43:00;16.00;99.90
15115;DHT22;7658;51.456;7.622;2022-07-26T05:45:25;15.90;99.90
15115;DHT22;7658;51.456;7.622;2022-07-26T05:47:52;16.00;99.90
15115;DHT22;7658;51.456;7.622;2022-07-26T05:50:18;16.00;99.90
15115;DHT22;7658;51.456;7.622;2022-07-26T05:52:44;16.00;99.90
15115;DHT22;7658;51.456;7.622;2022-07-26T05:55:10;16.00;99.90
15115;DHT22;7658;51.456;7.622;2022-07-26T05:57:36;16.00;99.90
15115;DHT22;7658;51.456;7.622;2022-07-26T06:00:09;16.00;99.90
15115;DHT22;7658;51.456;7.622;2022-07-26T06:02:35;16.10;99.90
15115;DHT22;7658;51.456;7.622;2022-07-26T06:05:01;16.10;99.90
15115;DHT22;7658;51.456;7.622;2022-07-26T06:07:27;16.10;99.90
15115;DHT22;7658;51.456;7.622;2022-07-26T06:09:52;16.20;99.90
15115;DHT22;7658;51.456;7.622;2022-07-26T06:12:18;16.20;99.90
15115;DHT22;7658;51.456;7.622;2022-07-26T06:14:44;16.30;99.90
15115;DHT22;7658;51.456;7.622;2022-07-26T06:17:10;16.30;99.90
15115;DHT22;7658;51.456;7.622;2022-07-26T06:19:36;16.30;99.90
15115;DHT22;7658;51.456;7.622;2022-07-26T06:22:02;16.40;99.90
15115;DHT22;7658;51.456;7.622;2022-07-26T06:24:28;16.50;99.90
15115;DHT22;7658;51.456;7.622;2022-07-26T06:27:09;16.50;99.90
15115;DHT22;7658;51.456;7.622;2022-07-26T06:29:35;16.70;99.90
15115;DHT22;7658;51.456;7.622;2022-07-26T06:32:00;16.60;99.90
15115;DHT22;7658;51.456;7.622;2022-07-26T06:34:26;16.70;99.90
15115;DHT22;7658;51.456;7.622;2022-07-26T06:36:52;16.80;99.90
15115;DHT22;7658;51.456;7.622;2022-07-26T06:39:17;16.80;99.90
15115;DHT22;7658;51.456;7.622;2022-07-26T06:41:43;16.80;99.90
15115;DHT22;7658;51.456;7.622;2022-07-26T06:44:09;16.90;99.90
15115;DHT22;7658;51.456;7.622;2022-07-26T06:46:35;16.90;99.90
15115;DHT22;7658;51.456;7.622;2022-07-26T06:49:01;16.90;99.90
15115;DHT22;7658;51.456;7.622;2022-07-26T06:51:27;16.80;99.90
15115;DHT22;7658;51.456;7.622;2022-07-26T06:53:52;16.80;99.90
15115;DHT22;7658;51.456;7.622;2022-07-26T06:56:18;16.90;99.90
15115;DHT22;7658;51.456;7.622;2022-07-26T06:58:44;17.00;99.90
15115;DHT22;7658;51.456;7.622;2022-07-26T07:01:10;17.00;99.90
15115;DHT22;7658;51.456;7.622;2022-07-26T07:03:36;17.10;99.90
15115;DHT22;7658;51.456;7.622;2022-07-26T07:06:02;17.20;99.90
15115;DHT22;7658;51.456;7.622;2022-07-26T07:08:28;17.30;99.90
15115;DHT22;7658;51.456;7.622;2022-07-26T07:10:54;17.30;99.90
15115;DHT22;7658;51.456;7.622;2022-07-26T07:13:21;17.40;99.90
15115;DHT22;7658;51.456;7.622;2022-07-26T07:15:47;17.40;99.90
15115;DHT22;7658;51.456;7.622;2022-07-26T07:18:13;17.50;99.90
15115;DHT22;7658;51.456;7.622;2022-07-26T07:20:39;17.60;99.90
15115;DHT22;7658;51.456;7.622;2022-07-26T07:23:05;17.70;99.90
15115;DHT22;7658;51.456;7.622;2022-07-26T07:25:31;17.80;99.90
15115;DHT22;7658;51.456;7.622;2022-07-26T07:27:58;17.80;99.90
15115;DHT22;7658;51.456;7.622;2022-07-26T07:30:24;17.90;99.90
15115;DHT22;7658;51.456;7.622;2022-07-26T07:32:50;17.90;99.90
15115;DHT22;7658;51.456;7.622;2022-07-26T07:35:16;17.90;99.90
15115;DHT22;7658;51.456;7.622;2022-07-26T07:37:42;18.00;99.90
15115;DHT22;7658;51.456;7.622;2022-07-26T07:40:10;17.90;99.90
15115;DHT22;7658;51.456;7.622;2022-07-26T07:42:37;18.00;99.90
15115;DHT22;7658;51.456;7.622;2022-07-26T07:45:03;18.10;99.90
15115;DHT22;7658;51.456;7.622;2022-07-26T07:47:32;18.20;99.90
15115;DHT22;7658;51.456;7.622;2022-07-26T07:49:58;18.20;99.90
15115;DHT22;7658;51.456;7.622;2022-07-26T07:52:24;18.20;99.90
15115;DHT22;7658;51.456;7.622;2022-07-26T07:54:50;18.20;99.90
15115;DHT22;7658;51.456;7.622;2022-07-26T07:57:15;18.10;99.90
15115;DHT22;7658;51.456;7.622;2022-07-26T07:59:41;18.20;99.90
15115;DHT22;7658;51.456;7.622;2022-07-26T08:02:07;18.30;99.90
15115;DHT22;7658;51.456;7.622;2022-07-26T08:04:34;18.40;99.90
15115;DHT22;7658;51.456;7.622;2022-07-26T08:07:00;18.40;99.90
15115;DHT22;7658;51.456;7.622;2022-07-26T08:09:26;18.50;99.90
15115;DHT22;7658;51.456;7.622;2022-07-26T08:11:51;18.60;99.90
15115;DHT22;7658;51.456;7.622;2022-07-26T08:14:18;18.60;99.90
15115;DHT22;7658;51.456;7.622;2022-07-26T08:16:43;18.70;99.90
15115;DHT22;7658;51.456;7.622;2022-07-26T08:19:10;18.90;99.90
15115;DHT22;7658;51.456;7.622;2022-07-26T08:21:35;19.00;99.90
15115;DHT22;7658;51.456;7.622;2022-07-26T08:24:01;19.10;99.90
15115;DHT22;7658;51.456;7.622;2022-07-26T08:26:27;19.20;99.90
15115;DHT22;7658;51.456;7.622;2022-07-26T08:28:53;19.20;99.90
15115;DHT22;7658;51.456;7.622;2022-07-26T08:31:18;19.30;99.90
15115;DHT22;7658;51.456;7.622;2022-07-26T08:33:46;19.50;99.90
15115;DHT22;7658;51.456;7.622;2022-07-26T08:36:16;19.40;99.90
15115;DHT22;7658;51.456;7.622;2022-07-26T08:38:43;19.50;99.90
15115;DHT22;7658;51.456;7.622;2022-07-26T08:41:09;19.70;99.90
15115;DHT22;7658;51.456;7.622;2022-07-26T08:43:34;19.70;99.90
15115;DHT22;7658;51.456;7.622;2022-07-26T08:46:00;19.70;99.90
15115;DHT22;7658;51.456;7.622;2022-07-26T08:48:27;19.70;99.90
15115;DHT22;7658;51.456;7.622;2022-07-26T08:50:54;19.80;99.90
15115;DHT22;7658;51.456;7.622;2022-07-26T08:53:21;19.90;99.90
15115;DHT22;7658;51.456;7.622;2022-07-26T08:55:47;20.30;99.90
15115;DHT22;7658;51.456;7.622;2022-07-26T08:58:13;20.60;99.90
15115;DHT22;7658;51.456;7.622;2022-07-26T09:00:39;20.70;99.90
15115;DHT22;7658;51.456;7.622;2022-07-26T09:03:23;20.80;99.90
15115;DHT22;7658;51.456;7.622;2022-07-26T09:05:49;20.80;99.90
15115;DHT22;7658;51.456;7.622;2022-07-26T09:08:23;20.70;99.90
15115;DHT22;7658;51.456;7.622;2022-07-26T09:10:49;20.70;99.90
15115;DHT22;7658;51.456;7.622;2022-07-26T09:13:15;20.70;99.90
15115;DHT22;7658;51.456;7.622;2022-07-26T09:15:41;20.70;99.90
15115;DHT22;7658;51.456;7.622;2022-07-26T09:18:24;20.80;99.90
15115;DHT22;7658;51.456;7.622;2022-07-26T09:20:50;21.00;99.90
15115;DHT22;7658;51.456;7.622;2022-07-26T09:23:16;21.40;99.90
15115;DHT22;7658;51.456;7.622;2022-07-26T09:25:43;21.50;99.90
15115;DHT22;7658;51.456;7.622;2022-07-26T09:31:11;21.80;99.90
15115;DHT22;7658;51.456;7.622;2022-07-26T09:33:50;21.50;99.90
15115;DHT22;7658;51.456;7.622;2022-07-26T09:36:17;21.20;99.90
15115;DHT22;7658;51.456;7.622;2022-07-26T09:38:44;21.20;99.90
15115;DHT22;7658;51.456;7.622;2022-07-26T09:43:46;20.90;99.90
15115;DHT22;7658;51.456;7.622;2022-07-26T09:46:12;20.60;99.90
15115;DHT22;7658;51.456;7.622;2022-07-26T09:48:38;20.40;99.90
15115;DHT22;7658;51.456;7.622;2022-07-26T09:51:05;20.20;99.90
15115;DHT22;7658;51.456;7.622;2022-07-26T09:53:44;20.10;99.90
15115;DHT22;7658;51.456;7.622;2022-07-26T09:56:11;20.10;99.90
15115;DHT22;7658;51.456;7.622;2022-07-26T09:58:37;20.20;99.90
15115;DHT22;7658;51.456;7.622;2022-07-26T10:01:06;20.20;99.90
15115;DHT22;7658;51.456;7.622;2022-07-26T10:03:34;20.20;99.90
15115;DHT22;7658;51.456;7.622;2022-07-26T10:06:01;20.30;99.90
15115;DHT22;7658;51.456;7.622;2022-07-26T10:08:27;20.30;99.90
15115;DHT22;7658;51.456;7.622;2022-07-26T10:11:06;20.40;99.90
15115;DHT22;7658;51.456;7.622;2022-07-26T10:13:33;20.60;99.90
15115;DHT22;7658;51.456;7.622;2022-07-26T10:15:59;21.10;99.90
15115;DHT22;7658;51.456;7.622;2022-07-26T10:23:59;21.30;99.90
15115;DHT22;7658;51.456;7.622;2022-07-26T10:31:45;20.90;99.90
15115;DHT22;7658;51.456;7.622;2022-07-26T10:34:37;20.60;99.90
15115;DHT22;7658;51.456;7.622;2022-07-26T10:37:05;20.60;99.90
15115;DHT22;7658;51.456;7.622;2022-07-26T10:39:32;20.60;99.90
15115;DHT22;7658;51.456;7.622;2022-07-26T10:42:09;20.70;99.90
15115;DHT22;7658;51.456;7.622;2022-07-26T10:44:39;20.70;99.90
15115;DHT22;7658;51.456;7.622;2022-07-26T10:49:52;20.90;99.90
15115;DHT22;7658;51.456;7.622;2022-07-26T10:52:28;21.10;99.90
15115;DHT22;7658;51.456;7.622;2022-07-26T10:57:35;21.90;99.90
15115;DHT22;7658;51.456;7.622;2022-07-26T11:00:13;22.30;99.90
15115;DHT22;7658;51.456;7.622;2022-07-26T11:02:41;22.50;99.90
15115;DHT22;7658;51.456;7.622;2022-07-26T11:05:12;22.70;99.90
15115;DHT22;7658;51.456;7.622;2022-07-26T11:10:13;22.10;99.90
15115;DHT22;7658;51.456;7.622;2022-07-26T11:12:39;21.80;99.90
15115;DHT22;7658;51.456;7.622;2022-07-26T11:15:17;21.80;99.90
15115;DHT22;7658;51.456;7.622;2022-07-26T11:17:43;21.30;99.90
15115;DHT22;7658;51.456;7.622;2022-07-26T11:20:09;20.90;99.90
15115;DHT22;7658;51.456;7.622;2022-07-26T11:22:35;20.70;99.90
15115;DHT22;7658;51.456;7.622;2022-07-26T11:25:02;20.30;99.90
15115;DHT22;7658;51.456;7.622;2022-07-26T11:27:29;20.00;99.90
15115;DHT22;7658;51.456;7.622;2022-07-26T11:29:56;19.80;99.90
15115;DHT22;7658;51.456;7.622;2022-07-26T11:32:27;19.70;99.90
15115;DHT22;7658;51.456;7.622;2022-07-26T11:35:00;19.60;99.90
15115;DHT22;7658;51.456;7.622;2022-07-26T11:37:27;19.40;99.90
15115;DHT22;7658;51.456;7.622;2022-07-26T11:39:53;19.30;99.90
15115;DHT22;7658;51.456;7.622;2022-07-26T11:42:19;19.30;99.90
15115;DHT22;7658;51.456;7.622;2022-07-26T11:44:47;19.20;99.90
15115;DHT22;7658;51.456;7.622;2022-07-26T11:47:18;19.20;99.90
15115;DHT22;7658;51.456;7.622;2022-07-26T11:49:47;19.30;99.90
15115;DHT22;7658;51.456;7.622;2022-07-26T11:52:13;19.40;99.90
15115;DHT22;7658;51.456;7.622;2022-07-26T11:54:47;19.50;99.90
15115;DHT22;7658;51.456;7.622;2022-07-26T11:57:14;19.60;99.90
15115;DHT22;7658;51.456;7.622;2022-07-26T11:59:40;19.80;99.90
15115;DHT22;7658;51.456;7.622;2022-07-26T12:02:08;19.80;99.90
15115;DHT22;7658;51.456;7.622;2022-07-26T12:04:37;19.80;99.90
15115;DHT22;7658;51.456;7.622;2022-07-26T12:07:08;19.90;99.90
15115;DHT22;7658;51.456;7.622;2022-07-26T12:09:36;19.90;99.90
15115;DHT22;7658;51.456;7.622;2022-07-26T12:12:05;19.90;99.90
15115;DHT22;7658;51.456;7.622;2022-07-26T12:14:33;19.90;99.90
15115;DHT22;7658;51.456;7.622;2022-07-26T12:17:10;19.90;99.90
15115;DHT22;7658;51.456;7.622;2022-07-26T12:19:36;20.00;99.90
15115;DHT22;7658;51.456;7.622;2022-07-26T12:27:10;20.20;99.90
15115;DHT22;7658;51.456;7.622;2022-07-26T12:29:38;20.30;99.90
15115;DHT22;7658;51.456;7.622;2022-07-26T12:32:06;20.20;99.90
15115;DHT22;7658;51.456;7.622;2022-07-26T12:34:32;20.10;99.90
15115;DHT22;7658;51.456;7.622;2022-07-26T12:37:12;20.10;99.90
15115;DHT22;7658;51.456;7.622;2022-07-26T12:39:40;20.10;99.90
15115;DHT22;7658;51.456;7.622;2022-07-26T12:44:47;21.00;99.90
15115;DHT22;7658;51.456;7.622;2022-07-26T12:47:12;21.20;99.90
15115;DHT22;7658;51.456;7.622;2022-07-26T12:49:38;21.30;99.90
15115;DHT22;7658;51.456;7.622;2022-07-26T12:52:04;21.40;99.90
15115;DHT22;7658;51.456;7.622;2022-07-26T12:54:30;21.70;99.90
15115;DHT22;7658;51.456;7.622;2022-07-26T12:56:56;22.10;99.90
15115;DHT22;7658;51.456;7.622;2022-07-26T12:59:22;22.60;99.90
15115;DHT22;7658;51.456;7.622;2022-07-26T13:01:47;22.70;99.90
15115;DHT22;7658;51.456;7.622;2022-07-26T13:04:13;22.80;99.90
15115;DHT22;7658;51.456;7.622;2022-07-26T13:06:39;22.80;99.90
15115;DHT22;7658;51.456;7.622;2022-07-26T13:09:05;22.60;99.90
15115;DHT22;7658;51.456;7.622;2022-07-26T13:11:30;22.90;99.90
15115;DHT22;7658;51.456;7.622;2022-07-26T13:13:56;22.90;99.90
15115;DHT22;7658;51.456;7.622;2022-07-26T13:16:22;23.10;99.90
15115;DHT22;7658;51.456;7.622;2022-07-26T13:18:48;23.00;99.90
15115;DHT22;7658;51.456;7.622;2022-07-26T13:21:13;22.70;99.90
15115;DHT22;7658;51.456;7.622;2022-07-26T13:23:39;23.20;99.90
15115;DHT22;7658;51.456;7.622;2022-07-26T13:26:05;23.20;99.90
15115;DHT22;7658;51.456;7.622;2022-07-26T13:28:31;23.90;99.90
15115;DHT22;7658;51.456;7.622;2022-07-26T13:30:56;24.30;99.90
15115;DHT22;7658;51.456;7.622;2022-07-26T13:33:22;24.10;99.90
15115;DHT22;7658;51.456;7.622;2022-07-26T13:35:48;23.60;99.90
15115;DHT22;7658;51.456;7.622;2022-07-26T13:38:14;23.50;99.90
15115;DHT22;7658;51.456;7.622;2022-07-26T13:40:40;23.00;99.90
15115;DHT22;7658;51.456;7.622;2022-07-26T13:43:06;22.40;99.90
15115;DHT22;7658;51.456;7.622;2022-07-26T13:45:32;22.00;99.90
15115;DHT22;7658;51.456;7.622;2022-07-26T13:47:57;21.80;99.90
15115;DHT22;7658;51.456;7.622;2022-07-26T13:50:23;21.70;99.90
15115;DHT22;7658;51.456;7.622;2022-07-26T13:52:53;21.70;99.90
15115;DHT22;7658;51.456;7.622;2022-07-26T13:55:20;21.80;99.90
15115;DHT22;7658;51.456;7.622;2022-07-26T13:57:45;21.70;99.90
15115;DHT22;7658;51.456;7.622;2022-07-26T14:00:11;21.50;99.90
15115;DHT22;7658;51.456;7.622;2022-07-26T14:02:38;21.30;99.90
15115;DHT22;7658;51.456;7.622;2022-07-26T14:05:04;21.10;99.90
15115;DHT22;7658;51.456;7.622;2022-07-26T14:07:30;21.80;99.90
15115;DHT22;7658;51.456;7.622;2022-07-26T14:09:55;22.60;99.90
15115;DHT22;7658;51.456;7.622;2022-07-26T14:12:21;23.30;99.90
15115;DHT22;7658;51.456;7.622;2022-07-26T14:14:47;24.00;99.90
15115;DHT22;7658;51.456;7.622;2022-07-26T14:17:12;24.20;99.90
15115;DHT22;7658;51.456;7.622;2022-07-26T14:19:38;24.60;99.90
15115;DHT22;7658;51.456;7.622;2022-07-26T14:22:04;25.00;99.90
15115;DHT22;7658;51.456;7.622;2022-07-26T14:24:30;25.40;99.90
15115;DHT22;7658;51.456;7.622;2022-07-26T14:26:55;25.30;99.90
15115;DHT22;7658;51.456;7.622;2022-07-26T14:29:21;25.10;99.90
15115;DHT22;7658;51.456;7.622;2022-07-26T14:31:47;25.00;99.90
15115;DHT22;7658;51.456;7.622;2022-07-26T14:34:12;25.10;99.90
15115;DHT22;7658;51.456;7.622;2022-07-26T14:36:38;25.00;99.90
15115;DHT22;7658;51.456;7.622;2022-07-26T14:39:04;25.00;99.90
15115;DHT22;7658;51.456;7.622;2022-07-26T14:41:30;24.50;99.90
15115;DHT22;7658;51.456;7.622;2022-07-26T14:43:56;24.00;99.90
15115;DHT22;7658;51.456;7.622;2022-07-26T14:46:22;24.10;99.90
15115;DHT22;7658;51.456;7.622;2022-07-26T14:48:48;24.30;99.90
15115;DHT22;7658;51.456;7.622;2022-07-26T14:51:13;24.80;99.90
15115;DHT22;7658;51.456;7.622;2022-07-26T14:53:40;25.40;99.90
15115;DHT22;7658;51.456;7.622;2022-07-26T14:56:06;25.60;99.90
15115;DHT22;7658;51.456;7.622;2022-07-26T14:58:32;26.20;99.90
15115;DHT22;7658;51.456;7.622;2022-07-26T15:00:58;26.50;99.90
15115;DHT22;7658;51.456;7.622;2022-07-26T15:03:24;26.80;99.90
15115;DHT22;7658;51.456;7.622;2022-07-26T15:05:50;26.00;99.90
15115;DHT22;7658;51.456;7.622;2022-07-26T15:08:16;25.10;99.90
15115;DHT22;7658;51.456;7.622;2022-07-26T15:10:41;24.50;99.90
15115;DHT22;7658;51.456;7.622;2022-07-26T15:13:07;23.90;99.90
15115;DHT22;7658;51.456;7.622;2022-07-26T15:15:33;23.20;99.90
15115;DHT22;7658;51.456;7.622;2022-07-26T15:17:59;22.70;99.90
15115;DHT22;7658;51.456;7.622;2022-07-26T15:20:25;22.30;99.90
15115;DHT22;7658;51.456;7.622;2022-07-26T15:22:51;22.00;99.90
15115;DHT22;7658;51.456;7.622;2022-07-26T15:25:22;21.90;99.90
15115;DHT22;7658;51.456;7.622;2022-07-26T15:27:48;22.20;99.90
15115;DHT22;7658;51.456;7.622;2022-07-26T15:30:15;22.40;99.90
15115;DHT22;7658;51.456;7.622;2022-07-26T15:32:42;22.70;99.90
15115;DHT22;7658;51.456;7.622;2022-07-26T15:35:09;22.70;99.90
15115;DHT22;7658;51.456;7.622;2022-07-26T15:37:35;22.60;99.90
15115;DHT22;7658;51.456;7.622;2022-07-26T15:40:01;22.50;99.90
15115;DHT22;7658;51.456;7.622;2022-07-26T15:42:31;22.30;99.90
15115;DHT22;7658;51.456;7.622;2022-07-26T15:44:57;22.30;99.90
15115;DHT22;7658;51.456;7.622;2022-07-26T15:47:23;22.00;99.90
15115;DHT22;7658;51.456;7.622;2022-07-26T15:49:48;21.90;99.90
15115;DHT22;7658;51.456;7.622;2022-07-26T15:52:14;21.80;99.90
15115;DHT22;7658;51.456;7.622;2022-07-26T15:54:40;21.60;99.90
15115;DHT22;7658;51.456;7.622;2022-07-26T15:57:07;21.50;99.90
15115;DHT22;7658;51.456;7.622;2022-07-26T15:59:33;21.40;99.90
15115;DHT22;7658;51.456;7.622;2022-07-26T16:01:59;21.20;99.90
15115;DHT22;7658;51.456;7.622;2022-07-26T16:04:25;21.20;99.90
15115;DHT22;7658;51.456;7.622;2022-07-26T16:06:50;21.20;99.90
15115;DHT22;7658;51.456;7.622;2022-07-26T16:09:16;21.10;99.90
15115;DHT22;7658;51.456;7.622;2022-07-26T16:11:42;21.10;99.90
15115;DHT22;7658;51.456;7.622;2022-07-26T16:14:08;21.00;99.90